Portada
METAR-TAF:

METAR-TAF

Aeroports :

Central Park

Nova York, Nova York, Estats Units d'Amèrica

latitud: 40-47-00N, longitud: 073-58-00W, altitud: 47 m

Observació

L'informe es va fer fa 28 minuts, a les 23:51 UTC
Vent 8 kt del Oest/Nord-Oest amb ràfegues de 20 kt, variant entre Oest/Sud-Oest i Nord-Oest
Temperatura 7°C
Humitat 42%
Pressió 1013 hPa
Visibilitat: 16.1 km
Escasses núvols a una alçada de 5500 ft

METAR: KNYC 222351Z AUTO 29008G20KT 250V320 10SM FEW055 07/M05 A2990 RMK AO2 PK WND 27029/2327 SLP116 60005 T00671050 10100 20067 53041 $

Hora: 19:19 (00:19 UTC)


TAF: manca

Observacions i pronòstics meteorològics de més de 4000 aeroports (METAR i TAF).

Les estacions disponibles són els punts grocs i vermells al mapa.

Posi el ratolí al punt desitjat per veure el nom de l'estació.

Feu clic per veure les observacions i els pronòstics meteorològics.

Per canviar el mapa: feu clic els botons verds amb una creu de color negre per apropar; al botó verd amb un guió per allunyar la imatge; o en les fletxes verdes per a mapes adjacents.


METAR-TAF: